Time;durP1;ratioP1;P1;durP2;ratioP2;P2;SDS_P1;SDS_P2;PMS_P1;PMS_P2;Temp;Humidity;BMP_temperature;BMP_pressure;BME280_temperature;BME280_humidity;BME280_pressure;Samples;Min_cycle;Max_cycle;Signal;HPM_P1;HPM_P2
2021/11/22 00:02:00;;;;;;;8.68;2.00;;;21.70;99.90;;;;;;5079221;28;20406;-69
2021/11/22 00:04:27;;;;;;;7.97;1.88;;;21.70;99.50;;;;;;5074216;28;20027;-69
2021/11/22 00:06:54;;;;;;;11.40;1.92;;;21.90;99.50;;;;;;5085078;28;20047;-69
2021/11/22 00:09:22;;;;;;;8.20;1.90;;;21.90;99.20;;;;;;5070843;28;20133;-69
2021/11/22 00:11:49;;;;;;;5.68;1.75;;;22.00;99.80;;;;;;5077075;28;20485;-69
2021/11/22 00:14:20;;;;;;;10.35;2.50;;;22.00;98.90;;;;;;5075358;28;20740;-69
2021/11/22 00:16:47;;;;;;;8.85;2.05;;;21.90;98.20;;;;;;5075848;28;20037;-69
2021/11/22 00:19:14;;;;;;;12.18;1.88;;;21.90;98.70;;;;;;5078526;28;20031;-69
2021/11/22 00:21:41;;;;;;;5.43;1.60;;;21.60;99.90;;;;;;5078544;28;20033;-68
2021/11/22 00:24:09;;;;;;;7.30;1.60;;;21.50;99.90;;;;;;5088233;28;20027;-69
2021/11/22 00:26:36;;;;;;;8.65;2.25;;;21.20;99.90;;;;;;5054108;28;20072;-69
2021/11/22 00:29:03;;;;;;;5.80;1.80;;;21.10;99.90;;;;;;5072265;28;20020;-69
2021/11/22 00:31:30;;;;;;;10.07;2.10;;;21.20;99.90;;;;;;5079815;28;20016;-69
2021/11/22 00:33:58;;;;;;;5.18;2.28;;;21.40;99.90;;;;;;5071766;28;20490;-68
2021/11/22 00:36:25;;;;;;;9.30;1.48;;;21.20;99.90;;;;;;5071823;28;20023;-68
2021/11/22 00:38:52;;;;;;;7.30;1.95;;;21.30;99.90;;;;;;5070492;28;20034;-68
2021/11/22 00:41:19;;;;;;;6.68;1.90;;;21.10;99.90;;;;;;5072976;28;20391;-66
2021/11/22 00:43:47;;;;;;;8.90;2.28;;;21.20;99.20;;;;;;5077719;28;20115;-68
2021/11/22 00:46:14;;;;;;;7.32;1.95;;;21.50;99.90;;;;;;5072731;28;20087;-66
2021/11/22 00:48:41;;;;;;;6.07;1.67;;;22.00;98.80;;;;;;5072860;28;20024;-67
2021/11/22 00:51:08;;;;;;;5.20;1.77;;;22.00;99.10;;;;;;5073299;28;20012;-67
2021/11/22 00:53:36;;;;;;;6.13;1.70;;;22.30;98.90;;;;;;5075085;28;20112;-67
2021/11/22 00:56:03;;;;;;;7.80;1.73;;;22.30;98.10;;;;;;5078843;28;20078;-67
2021/11/22 00:58:30;;;;;;;8.70;1.80;;;22.40;98.00;;;;;;5082503;28;20116;-67
2021/11/22 01:00:57;;;;;;;12.10;2.78;;;22.40;96.90;;;;;;5076564;28;20012;-66
2021/11/22 01:03:24;;;;;;;6.45;2.20;;;22.90;97.30;;;;;;5081677;28;20033;-67
2021/11/22 01:05:51;;;;;;;6.57;1.50;;;23.60;94.70;;;;;;5073002;28;20104;-67
2021/11/22 01:08:19;;;;;;;8.48;1.65;;;23.70;93.60;;;;;;5081347;28;20013;-68
2021/11/22 01:10:46;;;;;;;3.38;1.25;;;23.80;92.60;;;;;;5080498;28;20028;-67
2021/11/22 01:13:14;;;;;;;8.75;1.55;;;24.00;93.00;;;;;;5071514;28;20032;-67
2021/11/22 01:15:41;;;;;;;7.97;1.83;;;24.20;93.00;;;;;;5076718;28;20423;-67
2021/11/22 01:18:09;;;;;;;9.77;1.90;;;23.80;93.20;;;;;;5070540;28;20111;-67
2021/11/22 01:20:36;;;;;;;5.85;1.90;;;23.00;94.70;;;;;;5069825;28;20374;-68
2021/11/22 01:23:08;;;;;;;6.03;1.90;;;22.20;95.80;;;;;;5070346;28;20029;-66
2021/11/22 01:25:37;;;;;;;9.80;2.05;;;21.80;97.20;;;;;;5068888;28;20536;-65
2021/11/22 01:28:04;;;;;;;8.45;1.77;;;21.60;98.80;;;;;;5071152;28;20048;-66
2021/11/22 01:30:35;;;;;;;6.93;1.58;;;21.80;98.70;;;;;;5084916;28;20048;-66
2021/11/22 01:33:02;;;;;;;8.35;2.00;;;21.80;97.70;;;;;;5069992;28;20115;-66
2021/11/22 01:35:29;;;;;;;9.15;2.92;;;21.90;98.10;;;;;;5074154;28;20021;-67
2021/11/22 01:37:57;;;;;;;8.77;1.70;;;22.30;97.60;;;;;;5070107;28;20043;-67
2021/11/22 01:40:26;;;;;;;7.00;2.15;;;23.10;96.60;;;;;;5069900;28;20024;-67
2021/11/22 01:42:54;;;;;;;6.63;1.55;;;23.30;94.80;;;;;;5069385;28;20029;-66
2021/11/22 01:45:22;;;;;;;6.97;1.92;;;23.60;94.50;;;;;;5070128;28;20032;-67
2021/11/22 01:47:49;;;;;;;4.43;1.60;;;24.00;94.20;;;;;;5069892;28;20610;-67
2021/11/22 01:50:19;;;;;;;7.32;1.67;;;24.40;91.60;;;;;;5069735;28;20036;-65
2021/11/22 01:52:47;;;;;;;6.78;1.83;;;24.60;91.70;;;;;;5070120;28;20032;-66
2021/11/22 01:55:18;;;;;;;8.15;1.60;;;24.20;91.70;;;;;;5070610;28;20031;-69
2021/11/22 01:57:46;;;;;;;8.63;2.25;;;23.50;93.00;;;;;;5077474;28;20378;-67
2021/11/22 02:00:21;;;;;;;9.05;2.03;;;22.50;94.80;;;;;;5069548;28;20021;-68
2021/11/22 02:02:48;;;;;;;9.38;2.08;;;22.70;95.30;;;;;;5069881;28;20028;-66
2021/11/22 02:05:16;;;;;;;8.63;1.55;;;23.50;93.60;;;;;;5069313;28;20024;-66
2021/11/22 02:07:44;;;;;;;5.78;1.90;;;24.20;91.90;;;;;;5069794;28;20033;-68
2021/11/22 02:10:11;;;;;;;7.13;1.77;;;24.00;89.20;;;;;;5069396;28;20021;-66
2021/11/22 02:12:39;;;;;;;5.55;1.60;;;23.60;90.90;;;;;;5069747;28;20020;-66
2021/11/22 02:15:08;;;;;;;8.38;2.03;;;23.30;92.00;;;;;;5069808;28;20486;-68
2021/11/22 02:17:38;;;;;;;8.27;1.98;;;23.10;91.10;;;;;;5069596;28;20077;-66
2021/11/22 02:20:09;;;;;;;8.60;1.70;;;23.10;92.10;;;;;;5069418;28;20029;-67
2021/11/22 02:22:37;;;;;;;9.95;1.85;;;22.90;93.50;;;;;;5072795;28;20043;-69
2021/11/22 02:25:09;;;;;;;10.55;2.50;;;23.00;94.40;;;;;;5070853;28;20479;-66
2021/11/22 02:27:41;;;;;;;6.40;2.08;;;23.00;95.40;;;;;;5069332;28;20633;-66
2021/11/22 02:30:11;;;;;;;7.30;2.63;;;23.00;95.90;;;;;;5074952;28;20020;-66
2021/11/22 02:32:40;;;;;;;8.70;2.25;;;22.90;96.20;;;;;;5058349;28;20048;-68
2021/11/22 02:35:11;;;;;;;6.43;2.08;;;22.70;95.60;;;;;;5082429;28;20031;-68
2021/11/22 02:37:39;;;;;;;10.63;1.90;;;22.30;96.90;;;;;;5078136;28;20032;-68
2021/11/22 02:40:07;;;;;;;9.48;1.83;;;22.00;97.50;;;;;;5061620;28;20545;-66
2021/11/22 02:42:41;;;;;;;6.50;2.00;;;22.30;98.00;;;;;;5078080;28;20020;-66
2021/11/22 02:45:10;;;;;;;7.18;1.70;;;22.40;99.00;;;;;;5077853;28;20024;-66
2021/11/22 02:47:38;;;;;;;6.35;2.08;;;22.30;99.90;;;;;;5083295;28;20020;-65
2021/11/22 02:50:08;;;;;;;9.43;2.50;;;22.00;99.90;;;;;;5079852;28;20023;-68
2021/11/22 02:52:36;;;;;;;7.45;1.77;;;21.80;99.90;;;;;;5082098;28;20008;-66
2021/11/22 02:55:05;;;;;;;7.80;1.83;;;21.90;99.90;;;;;;5077666;28;20020;-69
2021/11/22 02:57:32;;;;;;;8.57;2.20;;;21.90;99.90;;;;;;5083141;28;20363;-66
2021/11/22 02:59:59;;;;;;;7.45;2.08;;;22.00;99.90;;;;;;5081334;28;20020;-69
2021/11/22 03:02:27;;;;;;;8.75;2.53;;;22.10;99.90;;;;;;5077716;28;20044;-66
2021/11/22 03:04:54;;;;;;;7.03;2.10;;;22.20;99.90;;;;;;5083132;28;20047;-65
2021/11/22 03:07:21;;;;;;;11.20;2.63;;;21.80;99.90;;;;;;5081527;28;20032;-66
2021/11/22 03:09:48;;;;;;;8.35;2.10;;;21.70;99.90;;;;;;5086689;28;20027;-70
2021/11/22 03:12:16;;;;;;;7.35;1.77;;;21.40;99.90;;;;;;5084903;28;20035;-67
2021/11/22 03:14:43;;;;;;;7.32;2.22;;;21.10;99.90;;;;;;5082669;28;20044;-68
2021/11/22 03:17:10;;;;;;;9.00;2.00;;;20.80;99.90;;;;;;5080557;28;20032;-66
2021/11/22 03:19:38;;;;;;;8.75;2.20;;;20.70;99.90;;;;;;5083170;28;20020;-65
2021/11/22 03:22:05;;;;;;;6.65;1.65;;;20.60;99.90;;;;;;5081693;28;20055;-67
2021/11/22 03:24:33;;;;;;;3.83;1.70;;;20.60;99.90;;;;;;5080305;28;20020;-65
2021/11/22 03:27:02;;;;;;;6.40;2.45;;;21.00;99.90;;;;;;5082431;28;20556;-66
2021/11/22 03:29:29;;;;;;;8.07;2.13;;;21.90;99.90;;;;;;5081096;28;20117;-66
2021/11/22 03:31:58;;;;;;;5.38;1.80;;;22.00;99.90;;;;;;5080635;28;20527;-67
2021/11/22 03:34:26;;;;;;;5.03;1.50;;;22.10;99.90;;;;;;5081789;28;20364;-67
2021/11/22 03:36:54;;;;;;;5.28;1.63;;;22.20;99.80;;;;;;5081351;28;20024;-67
2021/11/22 03:39:24;;;;;;;6.30;1.60;;;22.10;99.70;;;;;;5079557;28;20114;-67
2021/11/22 03:41:55;;;;;;;7.57;1.67;;;22.40;99.30;;;;;;5082002;28;20020;-65
2021/11/22 03:44:22;;;;;;;6.10;1.80;;;22.60;97.50;;;;;;5083081;28;20346;-67
2021/11/22 03:46:52;;;;;;;8.48;1.70;;;22.70;96.80;;;;;;5080443;28;20143;-67
2021/11/22 03:49:20;;;;;;;6.53;1.80;;;22.80;97.20;;;;;;5079419;28;20020;-67
2021/11/22 03:51:48;;;;;;;5.45;1.65;;;23.00;96.50;;;;;;5080952;28;20012;-68
2021/11/22 03:54:16;;;;;;;5.15;1.83;;;23.30;96.10;;;;;;5082128;28;20013;-67
2021/11/22 03:56:43;;;;;;;4.30;1.52;;;23.30;95.90;;;;;;5061425;28;20493;-65
2021/11/22 03:59:11;;;;;;;8.02;2.78;;;23.10;94.50;;;;;;5081903;28;20519;-66
2021/11/22 04:01:39;;;;;;;8.90;2.90;;;22.90;96.00;;;;;;5079110;28;20020;-68
2021/11/22 04:04:06;;;;;;;6.55;1.85;;;22.70;96.70;;;;;;5081523;28;20021;-67
2021/11/22 04:06:34;;;;;;;12.02;2.42;;;22.60;95.60;;;;;;5081011;28;20024;-67
2021/11/22 04:09:02;;;;;;;6.97;1.90;;;22.30;96.70;;;;;;5084451;28;20107;-66
2021/11/22 04:11:29;;;;;;;12.52;2.10;;;22.10;98.30;;;;;;5080786;28;20024;-69
2021/11/22 04:13:56;;;;;;;7.10;2.20;;;22.00;98.80;;;;;;5057030;28;20059;-67
2021/11/22 04:16:23;;;;;;;9.15;2.05;;;22.00;98.10;;;;;;5080200;28;20064;-66
2021/11/22 04:18:51;;;;;;;6.55;1.85;;;22.00;98.70;;;;;;5080070;28;20024;-64
2021/11/22 04:21:24;;;;;;;4.93;1.60;;;22.00;98.00;;;;;;4868618;28;10000388;-65
2021/11/22 04:23:54;;;;;;;7.80;1.90;;;21.90;98.60;;;;;;5075805;28;20251;-66
2021/11/22 04:26:21;;;;;;;10.35;3.75;;;21.90;98.20;;;;;;5076462;28;20028;-66
2021/11/22 04:28:48;;;;;;;8.77;3.80;;;21.90;98.40;;;;;;5079494;28;20038;-66
2021/11/22 04:31:16;;;;;;;7.80;2.15;;;22.00;98.40;;;;;;5078933;28;20097;-67
2021/11/22 04:33:43;;;;;;;6.13;1.63;;;22.10;97.90;;;;;;5081348;28;20028;-68
2021/11/22 04:36:11;;;;;;;9.52;1.88;;;21.90;97.30;;;;;;5077787;28;20674;-67
2021/11/22 04:38:38;;;;;;;6.53;2.53;;;21.70;97.30;;;;;;5079112;28;20103;-68
2021/11/22 04:41:06;;;;;;;10.38;2.72;;;21.50;98.30;;;;;;5079645;28;20091;-69
2021/11/22 04:43:33;;;;;;;9.43;2.17;;;21.30;98.50;;;;;;5080515;28;20020;-63
2021/11/22 04:46:01;;;;;;;9.85;1.92;;;21.20;99.00;;;;;;5079603;28;20028;-70
2021/11/22 04:48:28;;;;;;;9.25;1.88;;;21.20;99.00;;;;;;5078433;28;20078;-66
2021/11/22 04:50:55;;;;;;;9.32;2.13;;;21.10;98.90;;;;;;5079824;28;20101;-65
2021/11/22 04:53:23;;;;;;;8.43;1.95;;;20.80;99.90;;;;;;5077357;28;20095;-66
2021/11/22 04:55:50;;;;;;;7.88;2.45;;;20.60;99.90;;;;;;5074532;28;20454;-66
2021/11/22 04:58:18;;;;;;;14.77;2.45;;;20.50;99.90;;;;;;5079865;28;20099;-66
2021/11/22 05:00:45;;;;;;;10.93;2.50;;;20.40;99.90;;;;;;5078677;28;20028;-65
2021/11/22 05:03:12;;;;;;;6.07;2.00;;;20.30;99.90;;;;;;5078907;28;20043;-65
2021/11/22 05:05:40;;;;;;;6.07;1.40;;;20.30;99.90;;;;;;5080410;28;20028;-65
2021/11/22 05:08:08;;;;;;;8.75;2.22;;;20.30;99.90;;;;;;5075687;28;20035;-65
2021/11/22 05:10:43;;;;;;;8.00;2.15;;;20.40;99.90;;;;;;5078579;28;20027;-66
2021/11/22 05:13:13;;;;;;;9.05;2.10;;;20.40;99.90;;;;;;5077607;28;20020;-67
2021/11/22 05:15:40;;;;;;;11.15;2.42;;;20.50;99.90;;;;;;5078357;28;20028;-67
2021/11/22 05:18:10;;;;;;;8.90;2.55;;;20.60;99.90;;;;;;5078273;28;20498;-66
2021/11/22 05:20:38;;;;;;;14.30;2.72;;;20.90;99.90;;;;;;5077879;28;20059;-67
2021/11/22 05:23:06;;;;;;;9.10;2.33;;;21.10;99.90;;;;;;5075325;28;20035;-64
2021/11/22 05:25:34;;;;;;;9.20;3.13;;;21.60;99.90;;;;;;5079079;28;20033;-65
2021/11/22 05:28:02;;;;;;;8.02;2.35;;;22.20;98.30;;;;;;5082127;28;20043;-67
2021/11/22 05:30:29;;;;;;;13.00;3.92;;;22.80;97.30;;;;;;5075430;28;20116;-66
2021/11/22 05:33:00;;;;;;;7.00;2.15;;;23.20;96.30;;;;;;5078545;28;20069;-65
2021/11/22 05:35:28;;;;;;;10.38;2.10;;;23.30;94.60;;;;;;5079923;28;20607;-67
2021/11/22 05:37:55;;;;;;;6.38;1.75;;;23.30;93.80;;;;;;5079255;28;20048;-68
2021/11/22 05:40:23;;;;;;;7.13;1.80;;;23.10;94.60;;;;;;5077477;28;20474;-67
2021/11/22 05:42:51;;;;;;;10.15;2.92;;;23.20;93.10;;;;;;5079213;28;20054;-69
2021/11/22 05:45:19;;;;;;;11.70;1.95;;;22.90;94.20;;;;;;5081501;28;20028;-68
2021/11/22 05:47:47;;;;;;;6.05;2.03;;;22.70;94.40;;;;;;5076217;28;20028;-66
2021/11/22 05:50:16;;;;;;;10.60;2.17;;;22.50;95.10;;;;;;5077279;28;20428;-65
2021/11/22 05:52:49;;;;;;;10.82;2.13;;;22.20;96.00;;;;;;5076987;28;20020;-65
2021/11/22 05:55:29;;;;;;;9.73;1.75;;;22.10;96.10;;;;;;5075379;28;20034;-66
2021/11/22 05:57:56;;;;;;;12.80;2.42;;;21.90;96.70;;;;;;5077570;28;20017;-66
2021/11/22 06:00:23;;;;;;;7.22;2.05;;;21.50;97.10;;;;;;5080852;28;20024;-66
2021/11/22 06:02:51;;;;;;;8.95;2.08;;;21.20;98.10;;;;;;5078401;28;20862;-66
2021/11/22 06:05:18;;;;;;;8.60;2.45;;;21.10;98.60;;;;;;5078699;28;20028;-66
2021/11/22 06:07:45;;;;;;;14.30;3.45;;;21.20;99.10;;;;;;5078098;28;20032;-65
2021/11/22 06:10:12;;;;;;;10.50;1.92;;;21.20;99.90;;;;;;5077954;28;20020;-68
2021/11/22 06:12:40;;;;;;;10.85;2.83;;;21.20;99.90;;;;;;5077484;28;20058;-69
2021/11/22 06:15:07;;;;;;;7.70;1.95;;;21.20;99.40;;;;;;5077939;28;20024;-66
2021/11/22 06:17:35;;;;;;;11.43;2.15;;;21.00;99.90;;;;;;5074787;28;20032;-69
2021/11/22 06:20:03;;;;;;;10.27;2.53;;;20.90;99.90;;;;;;5077388;28;20022;-66
2021/11/22 06:22:31;;;;;;;7.75;2.45;;;20.90;99.90;;;;;;5078648;28;20123;-66
2021/11/22 06:24:58;;;;;;;11.27;2.42;;;20.70;99.90;;;;;;5073347;28;20030;-69
2021/11/22 06:27:25;;;;;;;8.95;2.50;;;20.50;99.90;;;;;;5074876;28;20127;-68
2021/11/22 06:29:53;;;;;;;8.25;1.83;;;20.40;99.90;;;;;;5079336;28;20149;-69
2021/11/22 06:32:25;;;;;;;7.25;2.00;;;20.30;99.90;;;;;;5084262;28;20039;-69
2021/11/22 06:34:52;;;;;;;6.50;1.88;;;20.30;99.90;;;;;;5079342;28;20020;-68
2021/11/22 06:37:20;;;;;;;11.93;2.28;;;20.20;99.90;;;;;;5082767;28;20097;-67
2021/11/22 06:39:48;;;;;;;9.65;2.30;;;20.20;99.90;;;;;;5081653;28;20039;-67
2021/11/22 06:42:17;;;;;;;12.32;2.35;;;20.20;99.90;;;;;;5084928;28;20093;-66
2021/11/22 06:44:44;;;;;;;12.23;2.13;;;20.20;99.90;;;;;;5083685;28;20414;-64
2021/11/22 06:47:12;;;;;;;11.63;2.20;;;20.00;99.90;;;;;;5083785;28;20024;-68
2021/11/22 06:49:39;;;;;;;9.57;2.20;;;19.90;99.90;;;;;;5083330;28;20107;-68
2021/11/22 06:52:07;;;;;;;11.20;2.60;;;19.90;99.90;;;;;;5067020;28;20032;-69
2021/11/22 06:54:34;;;;;;;9.43;2.80;;;19.90;99.90;;;;;;5082486;28;20032;-68
2021/11/22 06:57:02;;;;;;;10.90;1.92;;;19.80;99.90;;;;;;5084190;28;20020;-67
2021/11/22 06:59:30;;;;;;;10.18;2.78;;;19.60;99.90;;;;;;5084727;28;20505;-68
2021/11/22 07:01:57;;;;;;;14.45;2.90;;;19.60;99.90;;;;;;4386410;28;10000833;-70
2021/11/22 07:04:24;;;;;;;10.80;2.38;;;19.60;99.90;;;;;;5090088;28;21712;-71
2021/11/22 07:06:52;;;;;;;7.43;2.33;;;19.50;99.90;;;;;;5085917;28;20107;-66
2021/11/22 07:09:19;;;;;;;13.02;2.50;;;19.50;99.90;;;;;;5073581;28;20025;-70
2021/11/22 07:11:47;;;;;;;13.13;2.50;;;19.50;99.90;;;;;;5078363;28;20060;-66
2021/11/22 07:14:14;;;;;;;9.88;2.10;;;19.50;99.90;;;;;;5078578;28;20023;-70
2021/11/22 07:16:41;;;;;;;8.13;2.15;;;19.60;99.90;;;;;;5089028;28;20106;-70
2021/11/22 07:19:08;;;;;;;6.65;2.00;;;19.70;99.90;;;;;;5081526;28;20048;-69
2021/11/22 07:21:36;;;;;;;12.00;2.47;;;19.90;99.90;;;;;;5079941;28;20025;-70
2021/11/22 07:24:03;;;;;;;12.65;1.95;;;19.80;99.90;;;;;;5083932;28;20081;-71
2021/11/22 07:26:30;;;;;;;12.13;2.33;;;19.80;99.90;;;;;;5081053;28;20109;-70
2021/11/22 07:28:57;;;;;;;15.32;2.85;;;19.90;99.90;;;;;;5082983;28;20532;-71
2021/11/22 07:31:24;;;;;;;12.93;2.88;;;19.80;99.90;;;;;;5080436;28;20020;-71
2021/11/22 07:33:52;;;;;;;8.18;2.25;;;19.80;99.90;;;;;;5081127;28;20091;-71
2021/11/22 07:36:19;;;;;;;9.07;2.28;;;19.60;99.90;;;;;;5080967;28;20017;-66
2021/11/22 07:38:46;;;;;;;10.82;2.88;;;19.60;99.90;;;;;;5080495;28;20047;-69
2021/11/22 07:41:14;;;;;;;14.55;2.88;;;19.50;99.90;;;;;;5077073;28;20027;-72
2021/11/22 07:43:41;;;;;;;11.65;2.22;;;19.50;99.90;;;;;;5075327;28;20166;-67
2021/11/22 07:46:08;;;;;;;8.55;2.20;;;19.40;99.90;;;;;;5060154;28;20028;-70
2021/11/22 07:48:36;;;;;;;10.50;2.92;;;19.40;99.90;;;;;;5077768;28;20027;-71
2021/11/22 07:51:04;;;;;;;8.40;2.92;;;19.40;99.90;;;;;;5078108;28;20027;-69
2021/11/22 07:53:31;;;;;;;15.32;3.03;;;19.30;99.90;;;;;;5080168;28;20102;-69
2021/11/22 07:55:59;;;;;;;12.88;2.97;;;19.30;99.90;;;;;;5076680;28;20652;-70
2021/11/22 07:58:27;;;;;;;9.75;2.00;;;19.30;99.90;;;;;;5078268;28;20024;-70
2021/11/22 08:00:54;;;;;;;15.82;2.72;;;19.30;99.90;;;;;;5078080;28;20047;-71
2021/11/22 08:03:21;;;;;;;12.65;2.92;;;19.20;99.90;;;;;;5079574;28;20474;-70
2021/11/22 08:05:52;;;;;;;10.10;2.55;;;19.10;99.90;;;;;;5079228;28;20016;-69
2021/11/22 08:08:21;;;;;;;9.88;2.80;;;19.10;99.90;;;;;;5076495;28;20040;-70
2021/11/22 08:10:54;;;;;;;12.43;2.67;;;19.20;99.90;;;;;;5059471;28;20020;-70
2021/11/22 08:13:21;;;;;;;8.98;2.50;;;19.00;99.90;;;;;;5077998;28;20028;-73
2021/11/22 08:15:48;;;;;;;9.85;3.03;;;18.90;99.90;;;;;;5076157;28;20505;-69
2021/11/22 08:18:16;;;;;;;10.60;2.97;;;18.80;99.90;;;;;;5079011;28;20073;-74
2021/11/22 08:20:43;;;;;;;11.02;2.58;;;18.70;99.90;;;;;;5072720;28;20028;-69
2021/11/22 08:23:10;;;;;;;9.90;2.50;;;18.60;99.90;;;;;;5067275;28;20185;-70
2021/11/22 08:25:37;;;;;;;11.50;2.45;;;18.60;99.90;;;;;;5081352;28;20024;-67
2021/11/22 08:28:05;;;;;;;8.65;2.60;;;18.60;99.90;;;;;;5072070;28;20102;-69
2021/11/22 08:30:33;;;;;;;12.18;3.70;;;18.50;99.90;;;;;;5071784;28;20743;-71
2021/11/22 08:33:00;;;;;;;16.73;2.55;;;18.40;99.90;;;;;;5066116;28;20024;-71
2021/11/22 08:35:31;;;;;;;12.90;3.00;;;18.30;99.90;;;;;;5068097;28;20026;-70
2021/11/22 08:38:01;;;;;;;18.80;3.17;;;18.30;99.90;;;;;;5065805;28;20017;-68
2021/11/22 08:40:29;;;;;;;11.85;2.95;;;18.40;99.90;;;;;;5078031;28;20016;-68
2021/11/22 08:42:57;;;;;;;10.18;2.70;;;18.40;99.90;;;;;;5073639;28;20031;-70
2021/11/22 08:45:24;;;;;;;12.48;2.72;;;18.30;99.90;;;;;;5073450;28;20036;-70
2021/11/22 08:47:53;;;;;;;17.60;2.85;;;18.20;99.90;;;;;;5066958;28;20024;-71
2021/11/22 08:50:22;;;;;;;16.15;3.30;;;18.20;99.90;;;;;;5065235;28;20423;-68
2021/11/22 08:52:49;;;;;;;15.85;3.25;;;18.10;99.90;;;;;;5070534;28;20025;-69
2021/11/22 08:55:18;;;;;;;14.18;3.40;;;18.10;99.90;;;;;;5066322;28;20036;-71
2021/11/22 08:57:46;;;;;;;16.02;3.25;;;18.00;99.90;;;;;;5070250;28;20024;-69
2021/11/22 09:00:17;;;;;;;12.98;2.80;;;18.00;99.90;;;;;;5064257;28;20056;-69
2021/11/22 09:02:44;;;;;;;12.35;2.95;;;18.10;99.90;;;;;;5069406;28;20398;-69
2021/11/22 09:05:11;;;;;;;13.80;2.42;;;18.10;99.90;;;;;;5065513;28;20031;-69
2021/11/22 09:07:39;;;;;;;10.85;2.50;;;18.00;99.90;;;;;;5049952;28;20043;-68
2021/11/22 09:10:06;;;;;;;11.48;3.25;;;18.00;99.90;;;;;;5065055;28;20020;-69
2021/11/22 09:12:33;;;;;;;10.13;2.75;;;18.00;99.90;;;;;;5071495;28;20025;-69
2021/11/22 09:15:01;;;;;;;12.05;2.70;;;18.00;99.90;;;;;;5070850;28;20030;-71
2021/11/22 09:17:28;;;;;;;18.90;3.85;;;17.90;99.90;;;;;;5076117;28;20478;-71
2021/11/22 09:19:56;;;;;;;11.32;3.88;;;17.90;99.90;;;;;;5065143;28;20016;-70
2021/11/22 09:22:23;;;;;;;13.60;2.90;;;17.80;99.90;;;;;;5080659;28;20028;-70
2021/11/22 09:24:50;;;;;;;8.93;2.20;;;17.80;99.90;;;;;;5069574;28;20741;-73
2021/11/22 09:27:17;;;;;;;10.90;2.75;;;17.80;99.90;;;;;;5071855;28;20506;-74
2021/11/22 09:29:44;;;;;;;10.98;2.42;;;17.80;99.90;;;;;;5077192;28;20027;-68
2021/11/22 09:32:11;;;;;;;15.38;3.25;;;17.80;99.90;;;;;;5079335;28;20055;-70
2021/11/22 09:34:39;;;;;;;13.15;2.80;;;17.80;99.90;;;;;;5070864;28;20085;-71
2021/11/22 09:37:06;;;;;;;15.27;3.35;;;17.80;99.90;;;;;;5068962;28;20032;-68
2021/11/22 09:39:33;;;;;;;10.18;2.95;;;17.70;99.90;;;;;;5077022;28;20035;-68
2021/11/22 09:42:01;;;;;;;16.63;4.03;;;17.70;99.90;;;;;;5081095;28;20032;-70
2021/11/22 09:44:28;;;;;;;13.60;2.67;;;17.80;99.90;;;;;;5069967;28;20573;-70
2021/11/22 09:46:55;;;;;;;15.70;2.85;;;17.70;99.90;;;;;;5072486;28;20085;-69
2021/11/22 09:49:23;;;;;;;18.58;3.13;;;17.70;99.90;;;;;;5074712;28;20027;-68
2021/11/22 09:51:51;;;;;;;10.27;2.60;;;17.70;99.90;;;;;;5078432;28;20032;-69
2021/11/22 09:54:19;;;;;;;14.18;2.75;;;17.70;99.90;;;;;;5078141;28;20032;-68
2021/11/22 09:56:49;;;;;;;12.98;2.58;;;17.70;99.90;;;;;;5070949;28;20079;-70
2021/11/22 09:59:18;;;;;;;17.85;2.97;;;17.70;99.90;;;;;;5076673;28;20027;-68
2021/11/22 10:01:50;;;;;;;9.43;2.40;;;17.60;99.90;;;;;;5058626;28;20028;-71
2021/11/22 10:04:19;;;;;;;;;;;17.60;99.90;;;;;;5075992;28;20536;-72
2021/11/22 10:06:53;;;;;;;13.70;3.58;;;17.60;99.90;;;;;;5073964;28;19980;-71
2021/11/22 10:09:36;;;;;;;12.93;3.08;;;17.70;99.90;;;;;;5077859;28;20020;-68
2021/11/22 10:12:28;;;;;;;14.48;2.83;;;17.60;99.90;;;;;;5072713;28;20036;-68
2021/11/22 10:15:02;;;;;;;11.68;2.50;;;17.70;99.90;;;;;;5074228;28;20024;-68
2021/11/22 10:17:41;;;;;;;16.88;2.65;;;17.70;99.90;;;;;;5075452;28;20121;-68
2021/11/22 10:20:11;;;;;;;10.18;3.05;;;17.60;99.90;;;;;;5075803;28;20040;-73
2021/11/22 10:23:01;;;;;;;10.82;3.55;;;17.60;99.90;;;;;;5073998;28;20506;-69
2021/11/22 10:25:36;;;;;;;6.90;2.60;;;17.50;99.90;;;;;;5071851;28;20024;-70
2021/11/22 10:28:15;;;;;;;14.68;3.50;;;17.50;99.90;;;;;;5099495;22;20056;-70
2021/11/22 10:30:55;;;;;;;15.27;2.97;;;17.50;99.90;;;;;;5094832;28;20031;-70
2021/11/22 10:33:27;;;;;;;12.55;2.63;;;17.40;99.90;;;;;;5097070;28;20855;-69
2021/11/22 10:35:59;;;;;;;12.93;2.60;;;17.50;99.90;;;;;;5096704;28;20023;-68
2021/11/22 10:38:35;;;;;;;6.90;2.65;;;17.50;99.90;;;;;;5095443;28;20565;-71
2021/11/22 10:41:12;;;;;;;16.45;3.28;;;17.50;99.90;;;;;;5095261;28;20708;-68
2021/11/22 10:43:49;;;;;;;16.65;3.25;;;17.50;99.90;;;;;;5098949;28;20028;-68
2021/11/22 10:46:22;;;;;;;16.17;2.60;;;17.50;99.90;;;;;;5096531;28;20027;-70
2021/11/22 10:48:51;;;;;;;13.65;2.80;;;17.40;99.90;;;;;;5096595;28;20541;-71
2021/11/22 10:51:28;;;;;;;13.40;2.83;;;17.40;99.90;;;;;;5098132;28;20074;-68
2021/11/22 10:54:04;;;;;;;12.52;2.88;;;17.30;99.90;;;;;;5100184;28;20443;-69
2021/11/22 10:56:41;;;;;;;9.27;2.40;;;17.20;99.90;;;;;;5097781;28;20027;-68
2021/11/22 10:59:12;;;;;;;9.30;2.45;;;17.30;99.90;;;;;;5096269;28;20397;-72
2021/11/22 11:01:44;;;;;;;12.82;3.13;;;17.40;99.90;;;;;;5099655;28;20024;-67
2021/11/22 11:04:18;;;;;;;11.10;2.95;;;17.30;99.90;;;;;;5100430;28;20676;-68
2021/11/22 11:06:55;;;;;;;12.90;2.65;;;17.30;99.90;;;;;;5094043;28;20073;-67
2021/11/22 11:09:35;;;;;;;17.73;3.33;;;17.20;99.90;;;;;;5097687;28;20548;-67
2021/11/22 11:12:07;;;;;;;15.00;3.22;;;17.20;99.90;;;;;;5098552;28;20381;-72
2021/11/22 11:14:36;;;;;;;20.42;7.53;;;17.20;99.90;;;;;;5095459;28;20028;-72
2021/11/22 11:17:12;;;;;;;12.70;3.35;;;17.20;99.90;;;;;;5098840;28;20379;-67
2021/11/22 11:19:40;;;;;;;16.90;3.22;;;17.30;99.90;;;;;;5100309;28;20541;-73
2021/11/22 11:22:10;;;;;;;17.70;3.33;;;17.30;99.90;;;;;;5103903;28;20139;-67
2021/11/22 11:24:38;;;;;;;17.38;3.13;;;17.30;99.90;;;;;;5057693;28;20024;-73
2021/11/22 11:27:06;;;;;;;15.35;3.25;;;17.40;99.90;;;;;;5101667;28;20461;-72
2021/11/22 11:29:33;;;;;;;11.40;2.47;;;17.30;99.90;;;;;;5100969;28;20023;-67
2021/11/22 11:32:00;;;;;;;11.82;3.55;;;17.30;99.90;;;;;;5101816;28;20024;-67
2021/11/22 11:34:32;;;;;;;17.52;3.00;;;17.20;99.90;;;;;;5100861;28;20161;-67
2021/11/22 11:37:07;;;;;;;14.60;3.17;;;17.30;99.90;;;;;;5101979;28;20556;-72
2021/11/22 11:39:43;;;;;;;15.57;2.78;;;17.30;99.90;;;;;;5101901;28;20144;-72
2021/11/22 11:42:45;;;;;;;15.55;3.35;;;17.30;99.90;;;;;;5100044;28;20047;-67
2021/11/22 11:45:29;;;;;;;13.77;3.17;;;17.20;99.90;;;;;;5075146;28;20044;-73
2021/11/22 11:48:15;;;;;;;12.82;3.40;;;17.20;99.90;;;;;;5102145;28;20020;-72
2021/11/22 11:50:45;;;;;;;16.17;2.70;;;17.20;99.90;;;;;;5099019;28;20024;-67
2021/11/22 11:53:18;;;;;;;11.90;3.22;;;17.20;99.90;;;;;;5102009;28;20028;-67
2021/11/22 11:56:07;;;;;;;15.75;3.45;;;17.20;99.90;;;;;;5103043;28;20130;-67
2021/11/22 11:58:34;;;;;;;14.18;2.72;;;17.10;99.90;;;;;;5102622;28;20031;-67
2021/11/22 12:01:15;;;;;;;17.33;3.10;;;17.10;99.90;;;;;;5100586;28;20050;-72
2021/11/22 12:04:10;;;;;;;15.23;2.83;;;17.20;99.90;;;;;;5104833;28;20089;-73
2021/11/22 12:06:57;;;;;;;7.43;2.83;;;17.10;99.90;;;;;;5100272;28;20036;-73
2021/11/22 12:09:30;;;;;;;11.88;2.60;;;17.10;99.90;;;;;;5101261;28;20051;-73
2021/11/22 12:12:19;;;;;;;16.42;3.30;;;16.90;99.90;;;;;;5105415;28;20081;-68
2021/11/22 12:14:57;;;;;;;14.77;2.97;;;16.80;99.90;;;;;;5101441;28;20055;-67
2021/11/22 12:17:43;;;;;;;15.50;2.83;;;16.80;99.90;;;;;;5099529;28;20042;-72
2021/11/22 12:20:29;;;;;;;15.07;2.88;;;16.70;99.90;;;;;;5084628;28;20016;-72
2021/11/22 12:23:02;;;;;;;7.75;2.28;;;16.80;99.90;;;;;;5092632;28;20445;-72
2021/11/22 12:25:39;;;;;;;10.18;2.38;;;16.70;99.90;;;;;;5088108;28;20328;-68
2021/11/22 12:28:26;;;;;;;16.55;3.83;;;16.70;99.90;;;;;;5093144;28;20071;-68
2021/11/22 12:31:01;;;;;;;15.32;2.97;;;16.70;99.90;;;;;;5096650;28;20024;-72
2021/11/22 12:33:28;;;;;;;13.13;4.32;;;16.60;99.90;;;;;;5101498;28;20020;-67
2021/11/22 12:36:02;;;;;;;15.07;3.35;;;16.70;99.90;;;;;;5093503;28;20020;-68
2021/11/22 12:38:33;;;;;;;11.13;2.70;;;16.80;99.90;;;;;;5096649;28;20028;-72
2021/11/22 12:41:09;;;;;;;16.88;3.55;;;16.70;99.90;;;;;;5096213;28;20482;-72
2021/11/22 12:43:52;;;;;;;16.27;3.08;;;16.60;99.90;;;;;;5092884;28;20051;-72
2021/11/22 12:46:23;;;;;;;15.13;2.70;;;16.60;99.90;;;;;;5102961;28;20626;-67
2021/11/22 12:48:56;;;;;;;13.05;2.47;;;16.70;99.90;;;;;;5100193;28;20099;-67
2021/11/22 12:51:26;;;;;;;19.42;3.70;;;16.60;99.90;;;;;;5095665;28;20028;-68
2021/11/22 12:54:05;;;;;;;10.70;2.72;;;16.50;99.90;;;;;;5091111;28;20544;-73
2021/11/22 12:56:39;;;;;;;13.35;3.08;;;16.40;99.90;;;;;;5089662;28;20024;-73